Cape Balder — V7KA5 — position and weather

sailwx.info

Track history (hours):
 
Tides and Currents Weather Stations Pressure Air Temp Water Temp Dewpoint Dewpoint Depression Visibility Wind Speed Wind Dir Waves Ship Positions

Cape Balder

Last reported at 2018-Apr-26 18:14 UTC. Time now 2018-Apr-26 22:46 UTC.
Position N 20°53' E 067°07'.

Length 274 m; draft 9 m.

Type: Ship. MMSI: 538005854.

Date/timePositionNaut miles runAvg speedWind from/ knotsBaromVisibWave heightAir tempDewpointWater temp
2018-Apr-26 18:14N 20°53' E 067°07'8 7.1
2018-Apr-26 17:09N 20°50' E 067°14'1 7.0
2018-Apr-26 17:00N 20°49' E 067°15'3 6.9
2018-Apr-26 16:31N 20°47' E 067°18'4 6.9
2018-Apr-26 15:55N 20°45' E 067°22'3 6.9
2018-Apr-26 15:30N 20°44' E 067°25'4 6.8
2018-Apr-26 14:58N 20°42' E 067°28'4 6.7
2018-Apr-26 14:26N 20°40' E 067°32'3 6.7
2018-Apr-26 14:01N 20°39' E 067°34'3 6.6
2018-Apr-26 13:30N 20°37' E 067°38'3 6.5
2018-Apr-26 12:58N 20°36' E 067°41'3 6.5
2018-Apr-26 12:30N 20°34' E 067°44'3 6.5
2018-Apr-26 12:01N 20°33' E 067°47'3 6.4
2018-Apr-26 11:29N 20°31' E 067°50'3 6.4
2018-Apr-26 10:59N 20°29' E 067°53'22 6.5
2018-Apr-26 07:35N 20°18' E 068°13'17 6.7
2018-Apr-26 05:06N 20°10' E 068°29'3 6.7
2018-Apr-26 04:40N 20°09' E 068°31'175 7.1
2018-Apr-25 04:00N 18°54' E 071°19'4 7.3
2018-Apr-25 03:30N 18°54' E 071°22'5 7.1
2018-Apr-25 02:52N 18°54' E 071°27'3 8.9
2018-Apr-25 02:31N 18°54' E 071°31'510.5
2018-Apr-25 02:00N 18°54' E 071°36'510.5
2018-Apr-25 01:31N 18°54' E 071°42'510.5
2018-Apr-25 01:01N 18°53' E 071°47'510.4
2018-Apr-25 00:31N 18°53' E 071°53'510.4
2018-Apr-25 00:00N 18°53' E 071°58'710.4
2018-Apr-24 23:22N 18°53' E 072°05'410.4
2018-Apr-24 23:00N 18°53' E 072°09'610.5
2018-Apr-24 22:27N 18°52' E 072°15'510.6
2018-Apr-24 22:00N 18°52' E 072°20'510.7
2018-Apr-24 21:31N 18°52' E 072°26'710.8
2018-Apr-24 20:54N 18°51' E 072°33'410.9
2018-Apr-24 20:30N 18°50' E 072°37'611.0
2018-Apr-24 19:57N 18°50' E 072°44'511.1
2018-Apr-24 19:30N 18°51' E 072°49'4 6.9
2018-Apr-24 18:52N 18°55' E 072°52'3 0.1
2018-Apr-23 18:25N 18°56' E 072°54'0 0.0
2018-Apr-23 17:55N 18°56' E 072°54'4 0.6
2018-Apr-23 12:03N 18°54' E 072°51'9 5.5
2018-Apr-23 10:20N 18°50' E 072°42'2 5.3
2018-Apr-23 09:59N 18°50' E 072°40'6 6.0
2018-Apr-23 08:59N 18°50' E 072°34'13 6.4
2018-Apr-23 06:57N 19°03' E 072°30'2 2.7
2018-Apr-23 06:16N 19°04' E 072°32'0 0.0
2018-Apr-23 03:33N 19°04' E 072°32'0 0.0
2018-Apr-23 03:20N 19°04' E 072°32'0 0.1
2018-Apr-23 02:56N 19°04' E 072°32'0 0.1
2018-Apr-23 02:20N 19°04' E 072°32'0 0.0
2018-Apr-22 17:40N 19°04' E 072°32'0 0.0
2018-Apr-22 17:16N 19°04' E 072°32'0 0.0
2018-Apr-22 16:10N 19°04' E 072°32'0 0.0
2018-Apr-22 15:58N 19°04' E 072°32'0 0.0
2018-Apr-22 15:27N 19°04' E 072°32'0 0.0
2018-Apr-22 14:57N 19°04' E 072°32'0 0.1
2018-Apr-22 14:27N 19°04' E 072°32'0 0.1
2018-Apr-22 13:45N 19°04' E 072°32'0 0.1
2018-Apr-22 13:26N 19°04' E 072°32'0 0.1
2018-Apr-22 11:32N 19°04' E 072°32'0 0.1
2018-Apr-22 11:26N 19°04' E 072°32'0 0.0
2018-Apr-22 10:49N 19°04' E 072°32'0 0.0
2018-Apr-22 10:25N 19°04' E 072°32'0 0.0
2018-Apr-22 09:55N 19°04' E 072°32'0 0.0
2018-Apr-22 09:19N 19°04' E 072°32'0 0.0
2018-Apr-22 08:36N 19°04' E 072°32'0 0.1
2018-Apr-22 08:30N 19°04' E 072°32'0 0.1
2018-Apr-22 08:00N 19°04' E 072°32'0 0.1
2018-Apr-22 06:23N 19°04' E 072°32'0 0.1
2018-Apr-22 05:53N 19°04' E 072°32'0 0.0
2018-Apr-21 21:32N 19°04' E 072°32'0 0.0
2018-Apr-21 18:54N 19°04' E 072°32'0 0.1
2018-Apr-21 18:18N 19°04' E 072°32'0 0.0
2018-Apr-21 18:00N 19°04' E 072°32'0 0.1
2018-Apr-21 17:24N 19°04' E 072°32'0 0.0
2018-Apr-21 15:53N 19°04' E 072°32'0 0.0
2018-Apr-21 15:29N 19°04' E 072°32'0 0.0
2018-Apr-21 14:59N 19°04' E 072°32'0 0.0
2018-Apr-21 14:22N 19°04' E 072°32'0 0.0
2018-Apr-21 13:52N 19°04' E 072°32'0 0.0
2018-Apr-21 13:28N 19°04' E 072°32'0 0.0
2018-Apr-21 12:58N 19°04' E 072°32'0 0.0
2018-Apr-21 12:28N 19°04' E 072°32'0 0.1
2018-Apr-21 11:57N 19°04' E 072°32'0 0.1
2018-Apr-21 09:51N 19°04' E 072°32'0 0.0
2018-Apr-21 08:08N 19°04' E 072°32'0 0.0
2018-Apr-21 01:41N 19°04' E 072°31'0 0.0
2018-Apr-21 01:29N 19°04' E 072°31'0 0.2
2018-Apr-21 00:53N 19°04' E 072°31'0 0.0
2018-Apr-20 16:25N 19°04' E 072°32'0 0.1
2018-Apr-20 15:49N 19°04' E 072°32'0 0.0
2018-Apr-20 15:19N 19°04' E 072°32'0 0.0
2018-Apr-20 14:54N 19°04' E 072°32'0 0.0
2018-Apr-20 14:30N 19°04' E 072°32'0 0.0
2018-Apr-20 14:00N 19°04' E 072°32'0 0.0
2018-Apr-20 13:30N 19°04' E 072°32'0 0.2
2018-Apr-20 12:23N 19°04' E 072°32'0 0.1
2018-Apr-20 11:47N 19°04' E 072°32'0 0.1
2018-Apr-20 11:29N 19°04' E 072°32'0 0.0
2018-Apr-20 04:38N 19°04' E 072°32'0 0.0
2018-Apr-19 16:02N 19°04' E 072°32'0 0.1
2018-Apr-19 15:56N 19°04' E 072°32'0 0.1
2018-Apr-19 15:26N 19°04' E 072°32'0 0.0
2018-Apr-19 14:56N 19°04' E 072°32'0 0.0
2018-Apr-19 14:26N 19°04' E 072°32'0 0.0
2018-Apr-19 13:56N 19°04' E 072°32'0 0.0
2018-Apr-19 13:25N 19°04' E 072°32'0 0.0
2018-Apr-19 12:49N 19°04' E 072°32'0 0.0
2018-Apr-19 12:25N 19°04' E 072°32'0 0.0
2018-Apr-19 04:03N 19°04' E 072°32'0 0.1
2018-Apr-19 02:14N 19°04' E 072°32'0 0.0
2018-Apr-19 01:56N 19°04' E 072°32'0 0.0
2018-Apr-19 01:20N 19°04' E 072°32'0 0.0
2018-Apr-19 00:50N 19°04' E 072°31'0 0.0
2018-Apr-19 00:26N 19°04' E 072°31'0 0.0
2018-Apr-18 23:55N 19°04' E 072°31'0 0.0
2018-Apr-18 23:25N 19°04' E 072°32'0 0.1
2018-Apr-18 22:55N 19°04' E 072°32'0 0.0
2018-Apr-18 22:19N 19°04' E 072°32'0 0.3
2018-Apr-18 21:55N 19°04' E 072°32'0 0.2
2018-Apr-18 21:06N 19°04' E 072°32'0 0.1
2018-Apr-18 20:54N 19°04' E 072°32'0 0.0
2018-Apr-18 17:41N 19°04' E 072°32'0 0.1
2018-Apr-18 17:23N 19°04' E 072°32'0 0.1
2018-Apr-18 16:59N 19°04' E 072°32'0 0.1
2018-Apr-18 16:22N 19°04' E 072°32'0 0.1
2018-Apr-18 14:45N 19°04' E 072°32'0 0.0
2018-Apr-18 14:21N 19°04' E 072°32'0 0.0
2018-Apr-18 07:55N 19°04' E 072°32'0 0.0
2018-Apr-18 07:30N 19°04' E 072°32'0 0.0
2018-Apr-18 05:17N 19°04' E 072°32'0 0.0
2018-Apr-18 04:47N 19°04' E 072°32'0 0.0
2018-Apr-18 04:11N 19°04' E 072°32'0 0.1
2018-Apr-18 03:41N 19°04' E 072°32'0 0.3
2018-Apr-18 03:29N 19°04' E 072°32'0 0.3
2018-Apr-18 02:58N 19°04' E 072°32'0 0.0
2018-Apr-17 22:39N 19°04' E 072°31'11 0.7
2018-Apr-17 07:21N 18°56' E 072°23'0 0.0
2018-Apr-17 06:57N 18°56' E 072°23'0 0.0
2018-Apr-17 06:26N 18°56' E 072°23'0 0.0
2018-Apr-17 05:56N 18°56' E 072°23'0 0.0
2018-Apr-17 05:20N 18°56' E 072°23'0 0.0
2018-Apr-17 04:56N 18°56' E 072°23'0 0.0
2018-Apr-17 04:25N 18°56' E 072°23'0 0.1
2018-Apr-17 03:55N 18°56' E 072°23'0 0.2
2018-Apr-17 03:01N 18°56' E 072°23'0 0.3
2018-Apr-17 02:55N 18°56' E 072°23'0 0.2
2018-Apr-17 02:25N 18°56' E 072°23'0 0.1
2018-Apr-17 02:00N 18°56' E 072°23'0 0.0
2018-Apr-17 01:30N 18°56' E 072°23'0 0.0
2018-Apr-16 23:53N 18°56' E 072°23'  
Track history (hours):
 
Tides and Currents Weather Stations Pressure Air Temp Water Temp Dewpoint Dewpoint Depression Visibility Wind Speed Wind Dir Waves Ship Positions

Cape Balder

Last reported at 2018-Apr-26 18:14 UTC. Time now 2018-Apr-26 22:46 UTC.
Position N 20°53' E 067°07'.

Length 274 m; draft 9 m.

Type: Ship. MMSI: 538005854.

Date/timePositionNaut miles runAvg speedWind from/ knotsBaromVisibWave heightAir tempDewpointWater temp
2018-Apr-26 18:14N 20°53' E 067°07'8 7.1
2018-Apr-26 17:09N 20°50' E 067°14'1 7.0
2018-Apr-26 17:00N 20°49' E 067°15'3 6.9
2018-Apr-26 16:31N 20°47' E 067°18'4 6.9
2018-Apr-26 15:55N 20°45' E 067°22'3 6.9
2018-Apr-26 15:30N 20°44' E 067°25'4 6.8
2018-Apr-26 14:58N 20°42' E 067°28'4 6.7
2018-Apr-26 14:26N 20°40' E 067°32'3 6.7
2018-Apr-26 14:01N 20°39' E 067°34'3 6.6
2018-Apr-26 13:30N 20°37' E 067°38'3 6.5
2018-Apr-26 12:58N 20°36' E 067°41'3 6.5
2018-Apr-26 12:30N 20°34' E 067°44'3 6.5
2018-Apr-26 12:01N 20°33' E 067°47'3 6.4
2018-Apr-26 11:29N 20°31' E 067°50'3 6.4
2018-Apr-26 10:59N 20°29' E 067°53'22 6.5
2018-Apr-26 07:35N 20°18' E 068°13'17 6.7
2018-Apr-26 05:06N 20°10' E 068°29'3 6.7
2018-Apr-26 04:40N 20°09' E 068°31'175 7.1
2018-Apr-25 04:00N 18°54' E 071°19'4 7.3
2018-Apr-25 03:30N 18°54' E 071°22'5 7.1
2018-Apr-25 02:52N 18°54' E 071°27'3 8.9
2018-Apr-25 02:31N 18°54' E 071°31'510.5
2018-Apr-25 02:00N 18°54' E 071°36'510.5
2018-Apr-25 01:31N 18°54' E 071°42'510.5
2018-Apr-25 01:01N 18°53' E 071°47'510.4
2018-Apr-25 00:31N 18°53' E 071°53'510.4
2018-Apr-25 00:00N 18°53' E 071°58'710.4
2018-Apr-24 23:22N 18°53' E 072°05'410.4
2018-Apr-24 23:00N 18°53' E 072°09'610.5
2018-Apr-24 22:27N 18°52' E 072°15'510.6
2018-Apr-24 22:00N 18°52' E 072°20'510.7
2018-Apr-24 21:31N 18°52' E 072°26'710.8
2018-Apr-24 20:54N 18°51' E 072°33'410.9
2018-Apr-24 20:30N 18°50' E 072°37'611.0
2018-Apr-24 19:57N 18°50' E 072°44'511.1
2018-Apr-24 19:30N 18°51' E 072°49'4 6.9
2018-Apr-24 18:52N 18°55' E 072°52'3 0.1
2018-Apr-23 18:25N 18°56' E 072°54'0 0.0
2018-Apr-23 17:55N 18°56' E 072°54'4 0.6
2018-Apr-23 12:03N 18°54' E 072°51'9 5.5
2018-Apr-23 10:20N 18°50' E 072°42'2 5.3
2018-Apr-23 09:59N 18°50' E 072°40'6 6.0
2018-Apr-23 08:59N 18°50' E 072°34'13 6.4
2018-Apr-23 06:57N 19°03' E 072°30'2 2.7
2018-Apr-23 06:16N 19°04' E 072°32'0 0.0
2018-Apr-23 03:33N 19°04' E 072°32'0 0.0
2018-Apr-23 03:20N 19°04' E 072°32'0 0.1
2018-Apr-23 02:56N 19°04' E 072°32'0 0.1
2018-Apr-23 02:20N 19°04' E 072°32'0 0.0
2018-Apr-22 17:40N 19°04' E 072°32'0 0.0
2018-Apr-22 17:16N 19°04' E 072°32'0 0.0
2018-Apr-22 16:10N 19°04' E 072°32'0 0.0
2018-Apr-22 15:58N 19°04' E 072°32'0 0.0
2018-Apr-22 15:27N 19°04' E 072°32'0 0.0
2018-Apr-22 14:57N 19°04' E 072°32'0 0.1
2018-Apr-22 14:27N 19°04' E 072°32'0 0.1
2018-Apr-22 13:45N 19°04' E 072°32'0 0.1
2018-Apr-22 13:26N 19°04' E 072°32'0 0.1
2018-Apr-22 11:32N 19°04' E 072°32'0 0.1
2018-Apr-22 11:26N 19°04' E 072°32'0 0.0
2018-Apr-22 10:49N 19°04' E 072°32'0 0.0
2018-Apr-22 10:25N 19°04' E 072°32'0 0.0
2018-Apr-22 09:55N 19°04' E 072°32'0 0.0
2018-Apr-22 09:19N 19°04' E 072°32'0 0.0
2018-Apr-22 08:36N 19°04' E 072°32'0 0.1
2018-Apr-22 08:30N 19°04' E 072°32'0 0.1
2018-Apr-22 08:00N 19°04' E 072°32'0 0.1
2018-Apr-22 06:23N 19°04' E 072°32'0 0.1
2018-Apr-22 05:53N 19°04' E 072°32'0 0.0
2018-Apr-21 21:32N 19°04' E 072°32'0 0.0
2018-Apr-21 18:54N 19°04' E 072°32'0 0.1
2018-Apr-21 18:18N 19°04' E 072°32'0 0.0
2018-Apr-21 18:00N 19°04' E 072°32'0 0.1
2018-Apr-21 17:24N 19°04' E 072°32'0 0.0
2018-Apr-21 15:53N 19°04' E 072°32'0 0.0
2018-Apr-21 15:29N 19°04' E 072°32'0 0.0
2018-Apr-21 14:59N 19°04' E 072°32'0 0.0
2018-Apr-21 14:22N 19°04' E 072°32'0 0.0
2018-Apr-21 13:52N 19°04' E 072°32'0 0.0
2018-Apr-21 13:28N 19°04' E 072°32'0 0.0
2018-Apr-21 12:58N 19°04' E 072°32'0 0.0
2018-Apr-21 12:28N 19°04' E 072°32'0 0.1
2018-Apr-21 11:57N 19°04' E 072°32'0 0.1
2018-Apr-21 09:51N 19°04' E 072°32'0 0.0
2018-Apr-21 08:08N 19°04' E 072°32'0 0.0
2018-Apr-21 01:41N 19°04' E 072°31'0 0.0
2018-Apr-21 01:29N 19°04' E 072°31'0 0.2
2018-Apr-21 00:53N 19°04' E 072°31'0 0.0
2018-Apr-20 16:25N 19°04' E 072°32'0 0.1
2018-Apr-20 15:49N 19°04' E 072°32'0 0.0
2018-Apr-20 15:19N 19°04' E 072°32'0 0.0
2018-Apr-20 14:54N 19°04' E 072°32'0 0.0
2018-Apr-20 14:30N 19°04' E 072°32'0 0.0
2018-Apr-20 14:00N 19°04' E 072°32'0 0.0
2018-Apr-20 13:30N 19°04' E 072°32'0 0.2
2018-Apr-20 12:23N 19°04' E 072°32'0 0.1
2018-Apr-20 11:47N 19°04' E 072°32'0 0.1
2018-Apr-20 11:29N 19°04' E 072°32'0 0.0
2018-Apr-20 04:38N 19°04' E 072°32'0 0.0
2018-Apr-19 16:02N 19°04' E 072°32'0 0.1
2018-Apr-19 15:56N 19°04' E 072°32'0 0.1
2018-Apr-19 15:26N 19°04' E 072°32'0 0.0
2018-Apr-19 14:56N 19°04' E 072°32'0 0.0
2018-Apr-19 14:26N 19°04' E 072°32'0 0.0
2018-Apr-19 13:56N 19°04' E 072°32'0 0.0
2018-Apr-19 13:25N 19°04' E 072°32'0 0.0
2018-Apr-19 12:49N 19°04' E 072°32'0 0.0
2018-Apr-19 12:25N 19°04' E 072°32'0 0.0
2018-Apr-19 04:03N 19°04' E 072°32'0 0.1
2018-Apr-19 02:14N 19°04' E 072°32'0 0.0
2018-Apr-19 01:56N 19°04' E 072°32'0 0.0
2018-Apr-19 01:20N 19°04' E 072°32'0 0.0
2018-Apr-19 00:50N 19°04' E 072°31'0 0.0
2018-Apr-19 00:26N 19°04' E 072°31'0 0.0
2018-Apr-18 23:55N 19°04' E 072°31'0 0.0
2018-Apr-18 23:25N 19°04' E 072°32'0 0.1
2018-Apr-18 22:55N 19°04' E 072°32'0 0.0
2018-Apr-18 22:19N 19°04' E 072°32'0 0.3
2018-Apr-18 21:55N 19°04' E 072°32'0 0.2
2018-Apr-18 21:06N 19°04' E 072°32'0 0.1
2018-Apr-18 20:54N 19°04' E 072°32'0 0.0
2018-Apr-18 17:41N 19°04' E 072°32'0 0.1
2018-Apr-18 17:23N 19°04' E 072°32'0 0.1
2018-Apr-18 16:59N 19°04' E 072°32'0 0.1
2018-Apr-18 16:22N 19°04' E 072°32'0 0.1
2018-Apr-18 14:45N 19°04' E 072°32'0 0.0
2018-Apr-18 14:21N 19°04' E 072°32'0 0.0
2018-Apr-18 07:55N 19°04' E 072°32'0 0.0
2018-Apr-18 07:30N 19°04' E 072°32'0 0.0
2018-Apr-18 05:17N 19°04' E 072°32'0 0.0
2018-Apr-18 04:47N 19°04' E 072°32'0 0.0
2018-Apr-18 04:11N 19°04' E 072°32'0 0.1
2018-Apr-18 03:41N 19°04' E 072°32'0 0.3
2018-Apr-18 03:29N 19°04' E 072°32'0 0.3
2018-Apr-18 02:58N 19°04' E 072°32'0 0.0
2018-Apr-17 22:39N 19°04' E 072°31'11 0.7
2018-Apr-17 07:21N 18°56' E 072°23'0 0.0
2018-Apr-17 06:57N 18°56' E 072°23'0 0.0
2018-Apr-17 06:26N 18°56' E 072°23'0 0.0
2018-Apr-17 05:56N 18°56' E 072°23'0 0.0
2018-Apr-17 05:20N 18°56' E 072°23'0 0.0
2018-Apr-17 04:56N 18°56' E 072°23'0 0.0
2018-Apr-17 04:25N 18°56' E 072°23'0 0.1
2018-Apr-17 03:55N 18°56' E 072°23'0 0.2
2018-Apr-17 03:01N 18°56' E 072°23'0 0.3
2018-Apr-17 02:55N 18°56' E 072°23'0 0.2
2018-Apr-17 02:25N 18°56' E 072°23'0 0.1
2018-Apr-17 02:00N 18°56' E 072°23'0 0.0
2018-Apr-17 01:30N 18°56' E 072°23'0 0.0
2018-Apr-16 23:53N 18°56' E 072°23'  

Dump ship's entire track history